createdAt,value
2022-09-03T00:00:47.861Z,3.30
2022-09-03T00:01:47.831Z,5.10
2022-09-03T00:02:47.816Z,3.60
2022-09-03T00:03:47.777Z,4.50
2022-09-03T00:04:47.751Z,3.80
2022-09-03T00:05:47.762Z,4.20
2022-09-03T00:06:47.717Z,4.40
2022-09-03T00:07:47.704Z,5.60
2022-09-03T00:08:47.700Z,4.90
2022-09-03T00:09:47.695Z,2.70
2022-09-03T00:10:47.730Z,3.80
2022-09-03T00:11:47.642Z,3.00
2022-09-03T00:12:47.652Z,4.40
2022-09-03T00:13:47.646Z,4.80
2022-09-03T00:14:47.624Z,2.90
2022-09-03T00:15:47.652Z,3.20
2022-09-03T00:16:47.618Z,2.70
2022-09-03T00:17:47.577Z,4.60
2022-09-03T00:18:47.585Z,3.50
2022-09-03T00:19:47.570Z,4.70
2022-09-03T00:20:47.567Z,3.30
2022-09-03T00:21:47.522Z,5.40
2022-09-03T00:22:47.543Z,3.90
2022-09-03T00:23:47.528Z,3.80
2022-09-03T00:24:47.499Z,4.60
2022-09-03T00:25:47.487Z,4.80
2022-09-03T00:26:47.466Z,4.40
2022-09-03T00:27:47.457Z,3.10
2022-09-03T00:28:47.435Z,4.70
2022-09-03T00:29:47.445Z,4.70
2022-09-03T00:30:47.506Z,2.60
2022-09-03T00:31:47.401Z,3.30
2022-09-03T00:32:47.889Z,2.80
2022-09-03T00:33:47.369Z,3.00
2022-09-03T00:34:47.788Z,5.40
2022-09-03T00:35:47.337Z,2.90
2022-09-03T00:36:47.329Z,4.50
2022-09-03T00:37:47.396Z,2.80
2022-09-03T00:38:47.572Z,4.20
2022-09-03T00:39:47.349Z,4.60
2022-09-03T00:40:47.283Z,4.70
2022-09-03T00:41:48.133Z,4.50
2022-09-03T00:42:47.264Z,3.10
2022-09-03T00:43:47.307Z,3.30
2022-09-03T00:44:47.249Z,5.70
2022-09-03T00:45:47.218Z,5.90
2022-09-03T00:46:47.304Z,5.00
2022-09-03T00:47:47.240Z,3.20
2022-09-03T00:48:47.185Z,3.30
2022-09-03T00:49:47.175Z,2.50
2022-09-03T00:50:47.154Z,3.10
2022-09-03T00:51:47.858Z,2.90
2022-09-03T00:52:47.139Z,3.40
2022-09-03T00:53:47.105Z,3.60
2022-09-03T00:54:47.098Z,3.40
2022-09-03T00:55:47.081Z,3.70
2022-09-03T00:56:47.086Z,5.80
2022-09-03T00:57:47.786Z,3.60
2022-09-03T00:58:47.076Z,3.00
2022-09-03T00:59:47.044Z,2.20
2022-09-03T01:00:47.208Z,4.00
2022-09-03T01:01:47.326Z,4.40
2022-09-03T01:02:47.092Z,5.20
2022-09-03T01:03:46.983Z,4.80
2022-09-03T01:04:47.042Z,4.90
2022-09-03T01:05:47.322Z,4.80
2022-09-03T01:06:46.945Z,4.70
2022-09-03T01:07:46.925Z,4.40
2022-09-03T01:08:49.096Z,4.50
2022-09-03T01:09:46.894Z,6.00
2022-09-03T01:10:46.919Z,3.80
2022-09-03T01:11:46.897Z,3.50
2022-09-03T01:12:46.871Z,3.20
2022-09-03T01:13:46.842Z,2.70
2022-09-03T01:14:46.884Z,4.00
2022-09-03T01:15:46.880Z,2.90
2022-09-03T01:16:46.817Z,3.20
2022-09-03T01:17:46.789Z,3.40
2022-09-03T01:18:46.810Z,4.10
2022-09-03T01:19:46.791Z,3.60
2022-09-03T01:20:46.755Z,6.50
2022-09-03T01:21:46.768Z,5.50
2022-09-03T01:22:46.750Z,3.20
2022-09-03T01:23:46.724Z,3.00
2022-09-03T01:24:46.719Z,3.40
2022-09-03T01:25:46.710Z,3.30
2022-09-03T01:26:46.707Z,2.60
2022-09-03T01:27:46.684Z,3.00
2022-09-03T01:28:46.655Z,3.80
2022-09-03T01:29:46.636Z,4.70
2022-09-03T01:30:46.679Z,2.90
2022-09-03T01:31:46.619Z,5.20
2022-09-03T01:32:46.624Z,2.60
2022-09-03T01:33:46.582Z,4.00
2022-09-03T01:34:46.614Z,3.70
2022-09-03T01:35:46.581Z,3.70
2022-09-03T01:36:46.915Z,2.80
2022-09-03T01:37:46.556Z,3.10
2022-09-03T01:38:46.815Z,3.70
2022-09-03T01:39:46.597Z,4.20
2022-09-03T01:40:46.544Z,5.00
2022-09-03T01:41:46.507Z,3.70
2022-09-03T01:42:46.501Z,2.80
2022-09-03T01:43:46.467Z,4.50
2022-09-03T01:44:46.439Z,4.70
2022-09-03T01:45:51.388Z,2.60
2022-09-03T01:46:46.463Z,2.80
2022-09-03T01:47:46.493Z,2.40
2022-09-03T01:48:46.418Z,6.00
2022-09-03T01:49:46.371Z,4.90
2022-09-03T01:50:47.403Z,4.90
2022-09-03T01:51:46.378Z,5.10
2022-09-03T01:52:46.379Z,4.50
2022-09-03T01:53:46.860Z,7.40
2022-09-03T01:54:46.310Z,2.80
2022-09-03T01:55:46.342Z,4.60
2022-09-03T01:56:46.305Z,3.30
2022-09-03T01:57:47.141Z,5.10
2022-09-03T01:58:46.319Z,4.20
2022-09-03T01:59:46.246Z,3.30
2022-09-03T02:00:46.313Z,4.00
2022-09-03T02:01:46.268Z,2.80
2022-09-03T02:02:46.255Z,3.70
2022-09-03T02:03:46.598Z,2.90
2022-09-03T02:04:46.180Z,4.80
2022-09-03T02:05:46.186Z,3.70
2022-09-03T02:06:47.146Z,4.20
2022-09-03T02:07:46.162Z,2.90
2022-09-03T02:08:46.119Z,4.10
2022-09-03T02:09:46.131Z,3.10
2022-09-03T02:10:46.096Z,3.40
2022-09-03T02:11:46.086Z,3.40
2022-09-03T02:12:46.089Z,3.80
2022-09-03T02:13:46.094Z,3.80
2022-09-03T02:14:46.054Z,3.50
2022-09-03T02:15:46.105Z,3.80
2022-09-03T02:16:46.029Z,4.90
2022-09-03T02:17:46.022Z,7.70
2022-09-03T02:18:46.035Z,4.50
2022-09-03T02:19:46.001Z,4.10
2022-09-03T02:20:46.757Z,2.90
2022-09-03T02:21:46.023Z,3.80
2022-09-03T02:22:45.985Z,3.90
2022-09-03T02:23:45.940Z,5.40
2022-09-03T02:24:45.936Z,6.10
2022-09-03T02:25:45.919Z,5.00
2022-09-03T02:26:45.878Z,3.60
2022-09-03T02:27:45.905Z,4.00
2022-09-03T02:28:45.866Z,5.40
2022-09-03T02:29:45.890Z,5.50
2022-09-03T02:30:45.951Z,5.00
2022-09-03T02:31:45.855Z,4.00
2022-09-03T02:32:45.815Z,4.40
2022-09-03T02:33:45.813Z,5.50
2022-09-03T02:34:45.846Z,10.60
2022-09-03T02:35:45.781Z,3.20
2022-09-03T02:36:45.802Z,6.70
2022-09-03T02:37:45.737Z,4.30
2022-09-03T02:38:45.758Z,3.90
2022-09-03T02:39:45.840Z,2.90
2022-09-03T02:40:45.738Z,5.40
2022-09-03T02:41:45.721Z,7.90
2022-09-03T02:42:45.663Z,4.10
2022-09-03T02:43:45.661Z,3.20
2022-09-03T02:44:45.677Z,3.90
2022-09-03T02:45:45.664Z,3.10
2022-09-03T02:46:45.642Z,4.50
2022-09-03T02:47:45.684Z,4.30
2022-09-03T02:48:45.596Z,3.70
2022-09-03T02:49:45.600Z,5.70
2022-09-03T02:50:45.610Z,3.30
2022-09-03T02:51:46.804Z,3.50
2022-09-03T02:52:46.254Z,3.60
2022-09-03T02:53:45.538Z,3.70
2022-09-03T02:54:45.568Z,5.10
2022-09-03T02:55:45.517Z,4.70
2022-09-03T02:56:45.509Z,4.20
2022-09-03T02:57:45.475Z,2.80
2022-09-03T02:58:45.510Z,5.10
2022-09-03T02:59:45.453Z,3.40
2022-09-03T03:00:45.445Z,5.40
2022-09-03T03:01:46.657Z,2.80
2022-09-03T03:02:45.983Z,2.90
2022-09-03T03:03:45.396Z,3.50
2022-09-03T03:04:45.408Z,3.60
2022-09-03T03:05:45.388Z,4.30
2022-09-03T03:06:47.629Z,4.90
2022-09-03T03:07:45.337Z,3.50
2022-09-03T03:08:46.348Z,3.60
2022-09-03T03:09:45.318Z,3.60
2022-09-03T03:10:45.307Z,4.50
2022-09-03T03:11:45.307Z,3.20
2022-09-03T03:12:45.318Z,5.60
2022-09-03T03:13:45.257Z,3.50
2022-09-03T03:14:45.259Z,4.10
2022-09-03T03:15:45.248Z,4.20
2022-09-03T03:16:45.327Z,3.80
2022-09-03T03:17:45.213Z,4.50
2022-09-03T03:18:45.522Z,4.30
2022-09-03T03:19:45.213Z,3.30
2022-09-03T03:20:45.218Z,3.40
2022-09-03T03:21:45.310Z,3.00
2022-09-03T03:22:45.157Z,3.90
2022-09-03T03:23:45.220Z,4.40
2022-09-03T03:24:45.337Z,4.40
2022-09-03T03:25:45.120Z,3.60
2022-09-03T03:26:45.116Z,4.60
2022-09-03T03:27:45.085Z,3.00
2022-09-03T03:28:45.133Z,4.00
2022-09-03T03:29:45.071Z,3.30
2022-09-03T03:30:45.091Z,4.50
2022-09-03T03:31:45.027Z,4.10
2022-09-03T03:32:45.078Z,5.10
2022-09-03T03:33:45.049Z,3.80
2022-09-03T03:34:45.001Z,4.50
2022-09-03T03:35:44.990Z,3.90
2022-09-03T03:36:44.963Z,2.80
2022-09-03T03:37:44.964Z,4.20
2022-09-03T03:38:45.299Z,5.00
2022-09-03T03:39:45.028Z,4.40
2022-09-03T03:40:44.968Z,4.80
2022-09-03T03:41:44.902Z,4.10
2022-09-03T03:42:44.890Z,4.50
2022-09-03T03:43:45.085Z,6.10
2022-09-03T03:44:44.861Z,3.50
2022-09-03T03:45:44.920Z,4.20
2022-09-03T03:46:44.866Z,4.00
2022-09-03T03:47:44.837Z,3.20
2022-09-03T03:48:44.866Z,3.70
2022-09-03T03:49:44.789Z,4.10
2022-09-03T03:50:44.806Z,6.30
2022-09-03T03:51:44.774Z,3.20
2022-09-03T03:52:44.784Z,5.10
2022-09-03T03:53:44.755Z,4.90
2022-09-03T03:54:44.758Z,4.30
2022-09-03T03:55:44.725Z,5.40
2022-09-03T03:56:44.742Z,3.60
2022-09-03T03:57:44.697Z,4.90
2022-09-03T03:58:44.699Z,4.00
2022-09-03T03:59:44.656Z,4.30
2022-09-03T04:00:44.674Z,3.70
2022-09-03T04:01:44.674Z,4.90
2022-09-03T04:02:44.679Z,4.70
2022-09-03T04:03:44.620Z,3.60
2022-09-03T04:04:44.610Z,4.10
2022-09-03T04:05:48.457Z,2.80
2022-09-03T04:06:44.587Z,3.60
2022-09-03T04:07:44.572Z,3.70
2022-09-03T04:08:44.649Z,4.50
2022-09-03T04:09:44.528Z,5.30
2022-09-03T04:10:44.531Z,3.30
2022-09-03T04:11:44.514Z,3.00
2022-09-03T04:12:44.520Z,4.40
2022-09-03T04:13:44.477Z,4.60
2022-09-03T04:14:44.512Z,5.20
2022-09-03T04:15:44.480Z,4.40
2022-09-03T04:16:44.477Z,4.50
2022-09-03T04:17:44.472Z,3.70
2022-09-03T04:18:44.409Z,3.20
2022-09-03T04:19:44.402Z,3.40
2022-09-03T04:20:44.402Z,5.30
2022-09-03T04:21:44.379Z,4.00
2022-09-03T04:22:44.376Z,4.80
2022-09-03T04:23:44.337Z,3.60
2022-09-03T04:24:44.591Z,4.90
2022-09-03T04:25:44.315Z,3.80
2022-09-03T04:26:44.299Z,3.40
2022-09-03T04:27:44.312Z,4.70
2022-09-03T04:28:44.278Z,5.30
2022-09-03T04:29:44.259Z,3.40
2022-09-03T04:30:44.476Z,4.50
2022-09-03T04:31:44.263Z,2.90
2022-09-03T04:32:44.244Z,3.50
2022-09-03T04:33:44.225Z,3.40
2022-09-03T04:34:44.215Z,4.40
2022-09-03T04:35:44.227Z,5.00
2022-09-03T04:36:44.175Z,3.60
2022-09-03T04:37:44.164Z,2.90
2022-09-03T04:38:44.144Z,2.80
2022-09-03T04:39:44.228Z,3.40
2022-09-03T04:40:44.117Z,3.30
2022-09-03T04:41:44.111Z,4.80
2022-09-03T04:42:44.108Z,4.00
2022-09-03T04:43:44.084Z,3.20
2022-09-03T04:44:44.090Z,4.40
2022-09-03T04:45:45.403Z,6.50
2022-09-03T04:46:44.042Z,3.50
2022-09-03T04:47:44.294Z,3.10
2022-09-03T04:48:44.049Z,3.90
2022-09-03T04:49:44.038Z,4.10
2022-09-03T04:50:44.011Z,4.20
2022-09-03T04:51:44.075Z,6.70
2022-09-03T04:52:43.983Z,8.20
2022-09-03T04:53:43.965Z,4.60
2022-09-03T04:54:43.958Z,6.30
2022-09-03T04:55:43.937Z,6.20
2022-09-03T04:56:43.953Z,6.30
2022-09-03T04:57:43.900Z,4.20
2022-09-03T04:58:44.167Z,4.90
2022-09-03T04:59:43.875Z,4.70
2022-09-03T05:00:43.883Z,8.60
2022-09-03T05:01:43.870Z,5.20
2022-09-03T05:02:43.851Z,5.10
2022-09-03T05:03:43.820Z,4.20
2022-09-03T05:04:43.813Z,3.90
2022-09-03T05:05:43.812Z,3.90
2022-09-03T05:06:43.821Z,4.60
2022-09-03T05:07:43.764Z,5.40
2022-09-03T05:08:43.765Z,6.10
2022-09-03T05:09:43.750Z,4.30
2022-09-03T05:10:43.793Z,5.00
2022-09-03T05:11:43.736Z,5.70
2022-09-03T05:12:43.726Z,4.70
2022-09-03T05:13:43.711Z,4.40
2022-09-03T05:14:43.706Z,5.70
2022-09-03T05:15:43.661Z,4.50
2022-09-03T05:16:43.726Z,5.10
2022-09-03T05:17:43.685Z,5.40
2022-09-03T05:18:43.633Z,4.90
2022-09-03T05:19:43.646Z,5.50
2022-09-03T05:20:43.608Z,4.20
2022-09-03T05:21:43.600Z,5.50
2022-09-03T05:22:43.594Z,5.90
2022-09-03T05:23:43.659Z,5.10
2022-09-03T05:24:43.567Z,4.60
2022-09-03T05:25:43.540Z,4.50
2022-09-03T05:26:43.526Z,5.30
2022-09-03T05:27:43.507Z,5.30
2022-09-03T05:28:43.507Z,6.30
2022-09-03T05:29:43.488Z,6.00
2022-09-03T05:30:43.501Z,5.20
2022-09-03T05:31:43.516Z,4.20
2022-09-03T05:32:43.477Z,4.40
2022-09-03T05:33:43.425Z,4.00
2022-09-03T05:34:43.448Z,4.40
2022-09-03T05:35:43.420Z,5.30
2022-09-03T05:36:43.391Z,4.50
2022-09-03T05:37:43.362Z,6.30
2022-09-03T05:38:43.354Z,5.30
2022-09-03T05:39:43.405Z,5.60
2022-09-03T05:40:43.339Z,5.80
2022-09-03T05:41:43.364Z,6.30
2022-09-03T05:42:43.316Z,4.80
2022-09-03T05:43:43.284Z,7.30
2022-09-03T05:44:43.324Z,11.00
2022-09-03T05:45:43.316Z,7.70
2022-09-03T05:46:43.264Z,8.00
2022-09-03T05:47:43.265Z,6.70
2022-09-03T05:48:43.318Z,7.50
2022-09-03T05:49:43.204Z,7.90
2022-09-03T05:50:43.233Z,5.70
2022-09-03T05:51:43.209Z,7.20
2022-09-03T05:52:43.205Z,9.20
2022-09-03T05:53:43.155Z,6.70
2022-09-03T05:54:43.147Z,7.60
2022-09-03T05:55:43.117Z,9.00
2022-09-03T05:56:43.141Z,6.20
2022-09-03T05:57:43.120Z,5.70
2022-09-03T05:58:43.144Z,5.40
2022-09-03T05:59:43.111Z,5.60
2022-09-03T06:00:43.083Z,4.70
2022-09-03T06:01:43.224Z,4.20
2022-09-03T06:02:43.142Z,6.00
2022-09-03T06:03:43.209Z,5.30
2022-09-03T06:04:43.048Z,4.70
2022-09-03T06:05:43.034Z,6.60
2022-09-03T06:06:43.031Z,4.40
2022-09-03T06:07:43.706Z,4.60
2022-09-03T06:08:42.975Z,5.80
2022-09-03T06:09:42.941Z,5.50
2022-09-03T06:10:45.087Z,6.20
2022-09-03T06:11:42.917Z,5.20
2022-09-03T06:12:42.916Z,6.60
2022-09-03T06:13:42.891Z,5.20
2022-09-03T06:14:42.894Z,4.60
2022-09-03T06:15:42.911Z,5.80
2022-09-03T06:16:42.921Z,5.20
2022-09-03T06:17:42.968Z,6.60
2022-09-03T06:18:42.833Z,5.30
2022-09-03T06:19:42.817Z,5.60
2022-09-03T06:20:42.800Z,8.10
2022-09-03T06:21:42.879Z,4.70
2022-09-03T06:22:42.785Z,5.70
2022-09-03T06:23:46.635Z,7.10
2022-09-03T06:24:42.763Z,6.60
2022-09-03T06:25:42.754Z,8.50
2022-09-03T06:26:42.966Z,10.30
2022-09-03T06:27:42.713Z,6.60
2022-09-03T06:28:42.698Z,6.00
2022-09-03T06:29:42.714Z,7.80
2022-09-03T06:30:42.682Z,8.70
2022-09-03T06:31:42.729Z,8.00
2022-09-03T06:32:42.651Z,7.30
2022-09-03T06:33:43.343Z,7.70
2022-09-03T06:34:42.657Z,6.70
2022-09-03T06:35:42.914Z,8.80
2022-09-03T06:36:42.603Z,9.00
2022-09-03T06:37:42.589Z,7.80
2022-09-03T06:38:42.612Z,6.70
2022-09-03T06:39:42.608Z,7.60
2022-09-03T06:40:42.607Z,5.50
2022-09-03T06:41:42.528Z,8.60
2022-09-03T06:42:45.782Z,8.00
2022-09-03T06:43:42.499Z,8.40
2022-09-03T06:44:42.514Z,8.40
2022-09-03T06:45:42.529Z,7.50
2022-09-03T06:46:42.774Z,6.70
2022-09-03T06:47:42.443Z,10.30
2022-09-03T06:48:42.448Z,6.40
2022-09-03T06:49:42.460Z,6.20
2022-09-03T06:50:42.420Z,6.90
2022-09-03T06:51:42.405Z,7.60
2022-09-03T06:52:42.383Z,6.80
2022-09-03T06:53:42.400Z,8.10
2022-09-03T06:54:42.391Z,6.90
2022-09-03T06:55:42.343Z,7.20
2022-09-03T06:56:42.327Z,8.90
2022-09-03T06:57:42.344Z,8.10
2022-09-03T06:58:42.461Z,10.10
2022-09-03T06:59:42.288Z,10.70
2022-09-03T07:00:42.502Z,7.60
2022-09-03T07:01:44.347Z,11.50
2022-09-03T07:02:44.942Z,10.30
2022-09-03T07:03:42.236Z,8.60
2022-09-03T07:04:42.256Z,7.90
2022-09-03T07:05:42.327Z,10.50
2022-09-03T07:06:42.199Z,6.20
2022-09-03T07:07:42.195Z,10.00
2022-09-03T07:08:42.170Z,8.70
2022-09-03T07:09:45.114Z,7.80
2022-09-03T07:10:42.282Z,10.80
2022-09-03T07:11:42.150Z,8.00
2022-09-03T07:12:42.112Z,9.50
2022-09-03T07:13:42.129Z,8.50
2022-09-03T07:14:42.091Z,8.00
2022-09-03T07:15:42.072Z,11.90
2022-09-03T07:16:42.178Z,13.10
2022-09-03T07:17:42.048Z,9.90
2022-09-03T07:18:42.045Z,12.50
2022-09-03T07:19:42.071Z,9.70
2022-09-03T07:20:42.031Z,10.60
2022-09-03T07:21:45.277Z,9.10
2022-09-03T07:22:41.982Z,9.90
2022-09-03T07:23:41.987Z,9.60
2022-09-03T07:24:41.980Z,10.70
2022-09-03T07:25:41.981Z,13.40
2022-09-03T07:26:41.943Z,8.30
2022-09-03T07:27:41.918Z,12.10
2022-09-03T07:28:41.897Z,10.60
2022-09-03T07:29:41.924Z,11.70
2022-09-03T07:30:42.294Z,9.50
2022-09-03T07:31:41.943Z,11.30
2022-09-03T07:32:41.988Z,10.90
2022-09-03T07:33:42.359Z,9.10
2022-09-03T07:34:41.840Z,11.00
2022-09-03T07:35:41.828Z,8.70
2022-09-03T07:36:41.816Z,11.30
2022-09-03T07:37:41.790Z,8.90
2022-09-03T07:38:41.775Z,9.20
2022-09-03T07:39:41.885Z,8.50
2022-09-03T07:40:41.753Z,8.90
2022-09-03T07:41:41.754Z,10.00
2022-09-03T07:42:41.719Z,9.80
2022-09-03T07:43:41.715Z,12.20
2022-09-03T07:44:41.754Z,9.10
2022-09-03T07:45:41.693Z,7.60
2022-09-03T07:46:41.739Z,10.40
2022-09-03T07:47:41.719Z,9.30
2022-09-03T07:48:41.651Z,8.40
2022-09-03T07:49:41.646Z,10.20
2022-09-03T07:50:41.608Z,10.50
2022-09-03T07:51:41.632Z,10.70
2022-09-03T07:52:41.598Z,8.60
2022-09-03T07:53:41.606Z,9.60
2022-09-03T07:54:41.566Z,9.40
2022-09-03T07:55:41.571Z,10.40
2022-09-03T07:56:41.572Z,9.80
2022-09-03T07:57:41.544Z,9.50
2022-09-03T07:58:41.507Z,8.50
2022-09-03T07:59:41.532Z,8.30
2022-09-03T08:00:41.515Z,8.20
2022-09-03T08:01:41.829Z,8.40
2022-09-03T08:02:45.959Z,9.50
2022-09-03T08:03:41.528Z,8.70
2022-09-03T08:04:41.423Z,7.60
2022-09-03T08:05:41.417Z,10.50
2022-09-03T08:06:41.454Z,10.20
2022-09-03T08:07:41.712Z,9.50
2022-09-03T08:08:41.388Z,9.30
2022-09-03T08:09:41.356Z,8.30
2022-09-03T08:10:41.340Z,10.50
2022-09-03T08:11:41.394Z,9.90
2022-09-03T08:12:41.328Z,8.50
2022-09-03T08:13:41.332Z,9.60
2022-09-03T08:14:41.362Z,11.00
2022-09-03T08:15:41.282Z,10.50
2022-09-03T08:16:41.320Z,9.70
2022-09-03T08:17:41.270Z,9.00
2022-09-03T08:18:41.265Z,9.20
2022-09-03T08:19:41.270Z,9.10
2022-09-03T08:20:41.206Z,9.60
2022-09-03T08:21:41.206Z,8.40
2022-09-03T08:22:41.206Z,8.30
2022-09-03T08:23:41.193Z,7.30
2022-09-03T08:24:41.187Z,8.20
2022-09-03T08:25:41.151Z,7.80
2022-09-03T08:26:41.125Z,9.80
2022-09-03T08:27:41.144Z,8.20
2022-09-03T08:28:41.130Z,8.00
2022-09-03T08:29:41.107Z,8.60
2022-09-03T08:30:41.087Z,10.20
2022-09-03T08:31:41.189Z,8.20
2022-09-03T08:32:41.094Z,8.30
2022-09-03T08:33:41.043Z,6.80
2022-09-03T08:34:41.078Z,8.30
2022-09-03T08:35:41.017Z,6.90
2022-09-03T08:36:41.011Z,9.20
2022-09-03T08:37:41.020Z,7.00
2022-09-03T08:38:40.985Z,7.70
2022-09-03T08:39:41.009Z,10.70
2022-09-03T08:40:40.950Z,9.20
2022-09-03T08:41:40.975Z,8.00
2022-09-03T08:42:40.927Z,7.60
2022-09-03T08:43:40.931Z,7.30
2022-09-03T08:44:40.924Z,8.90
2022-09-03T08:45:40.886Z,6.20
2022-09-03T08:46:40.905Z,6.50
2022-09-03T08:47:40.919Z,6.70
2022-09-03T08:48:40.854Z,6.10
2022-09-03T08:49:40.848Z,5.70
2022-09-03T08:50:40.816Z,7.30
2022-09-03T08:51:40.902Z,6.90
2022-09-03T08:52:40.815Z,7.00
2022-09-03T08:53:40.784Z,6.10
2022-09-03T08:54:40.753Z,6.20
2022-09-03T08:55:40.764Z,6.40
2022-09-03T08:56:40.730Z,5.90
2022-09-03T08:57:40.771Z,5.50
2022-09-03T08:58:40.731Z,7.80
2022-09-03T08:59:40.696Z,6.30
2022-09-03T09:00:40.694Z,7.10
2022-09-03T09:01:40.744Z,6.70
2022-09-03T09:02:40.791Z,8.10
2022-09-03T09:03:40.674Z,6.80
2022-09-03T09:04:40.620Z,8.00
2022-09-03T09:05:40.631Z,8.00
2022-09-03T09:06:40.607Z,7.80
2022-09-03T09:07:40.595Z,7.10
2022-09-03T09:08:40.582Z,7.70
2022-09-03T09:09:40.607Z,8.40
2022-09-03T09:10:40.572Z,7.90
2022-09-03T09:11:40.573Z,8.90
2022-09-03T09:12:46.292Z,9.20
2022-09-03T09:13:40.550Z,8.50
2022-09-03T09:14:40.507Z,9.80
2022-09-03T09:15:40.570Z,7.70
2022-09-03T09:16:40.499Z,7.80
2022-09-03T09:17:40.458Z,8.10
2022-09-03T09:18:40.447Z,9.50
2022-09-03T09:19:40.450Z,9.00
2022-09-03T09:20:40.417Z,9.30
2022-09-03T09:21:40.434Z,9.80
2022-09-03T09:22:40.428Z,8.50
2022-09-03T09:23:40.409Z,7.10
2022-09-03T09:24:40.380Z,7.70
2022-09-03T09:25:40.378Z,7.10
2022-09-03T09:26:40.382Z,6.80
2022-09-03T09:27:40.351Z,8.00
2022-09-03T09:28:40.306Z,7.00
2022-09-03T09:29:40.302Z,6.80
2022-09-03T09:30:40.285Z,7.30
2022-09-03T09:31:40.314Z,5.60
2022-09-03T09:32:40.278Z,6.40
2022-09-03T09:33:40.249Z,7.60
2022-09-03T09:34:40.241Z,6.60
2022-09-03T09:35:40.237Z,8.60
2022-09-03T09:36:40.207Z,5.80
2022-09-03T09:37:40.244Z,8.80
2022-09-03T09:38:40.185Z,5.60
2022-09-03T09:39:40.204Z,6.30
2022-09-03T09:40:44.839Z,6.70
2022-09-03T09:41:40.223Z,7.20
2022-09-03T09:42:40.135Z,7.60
2022-09-03T09:43:40.122Z,6.80
2022-09-03T09:44:40.143Z,10.00
2022-09-03T09:45:40.113Z,5.70
2022-09-03T09:46:40.184Z,5.00
2022-09-03T09:47:40.091Z,5.70
2022-09-03T09:48:40.054Z,5.80
2022-09-03T09:49:40.086Z,5.30
2022-09-03T09:50:40.085Z,7.90
2022-09-03T09:51:40.028Z,5.10
2022-09-03T09:52:40.001Z,6.20
2022-09-03T09:53:39.998Z,5.40
2022-09-03T09:54:39.977Z,7.40
2022-09-03T09:55:39.994Z,6.50
2022-09-03T09:56:39.974Z,6.00
2022-09-03T09:57:39.928Z,6.10
2022-09-03T09:58:39.924Z,8.00
2022-09-03T09:59:39.904Z,5.90
2022-09-03T10:00:39.930Z,5.90
2022-09-03T10:01:39.964Z,5.90
2022-09-03T10:02:39.914Z,5.70
2022-09-03T10:03:39.860Z,5.40
2022-09-03T10:04:39.861Z,4.40
2022-09-03T10:05:39.874Z,5.50
2022-09-03T10:06:39.839Z,5.40
2022-09-03T10:07:39.828Z,6.20
2022-09-03T10:08:39.788Z,5.60
2022-09-03T10:09:39.824Z,5.20
2022-09-03T10:10:39.769Z,6.40
2022-09-03T10:11:39.812Z,5.70
2022-09-03T10:12:39.761Z,4.50
2022-09-03T10:13:39.723Z,4.00
2022-09-03T10:14:39.706Z,6.10
2022-09-03T10:15:39.815Z,5.00
2022-09-03T10:16:39.727Z,4.40
2022-09-03T10:17:39.698Z,6.00
2022-09-03T10:18:39.689Z,4.60
2022-09-03T10:19:39.659Z,6.00
2022-09-03T10:20:39.637Z,3.60
2022-09-03T10:21:39.676Z,4.70
2022-09-03T10:22:39.637Z,4.50
2022-09-03T10:23:39.596Z,4.20
2022-09-03T10:24:39.603Z,4.50
2022-09-03T10:25:39.602Z,4.90
2022-09-03T10:26:39.628Z,4.70
2022-09-03T10:27:41.039Z,5.20
2022-09-03T10:28:39.538Z,5.80
2022-09-03T10:29:39.551Z,4.20
2022-09-03T10:30:39.630Z,6.40
2022-09-03T10:31:39.512Z,4.60
2022-09-03T10:32:41.844Z,4.70
2022-09-03T10:33:39.480Z,3.90
2022-09-03T10:34:39.455Z,4.00
2022-09-03T10:35:39.454Z,4.00
2022-09-03T10:36:39.451Z,4.90
2022-09-03T10:37:39.455Z,4.50
2022-09-03T10:38:39.526Z,5.90
2022-09-03T10:39:43.068Z,5.90
2022-09-03T10:40:39.422Z,3.80
2022-09-03T10:41:39.367Z,6.00
2022-09-03T10:42:39.364Z,4.50
2022-09-03T10:43:39.345Z,4.20
2022-09-03T10:44:39.346Z,4.50
2022-09-03T10:45:39.304Z,5.10
2022-09-03T10:46:39.323Z,6.20
2022-09-03T10:47:39.333Z,6.40
2022-09-03T10:48:39.874Z,8.20
2022-09-03T10:49:39.259Z,6.60
2022-09-03T10:50:39.287Z,5.70
2022-09-03T10:51:39.234Z,6.70
2022-09-03T10:52:39.230Z,7.00
2022-09-03T10:53:39.195Z,6.90
2022-09-03T10:54:39.204Z,7.00
2022-09-03T10:55:39.314Z,8.30
2022-09-03T10:56:39.147Z,7.20
2022-09-03T10:57:39.208Z,6.40
2022-09-03T10:58:39.135Z,5.30
2022-09-03T10:59:39.143Z,5.10
2022-09-03T11:00:39.135Z,8.60
2022-09-03T11:01:39.188Z,5.30
2022-09-03T11:02:39.205Z,6.50
2022-09-03T11:03:39.120Z,4.50
2022-09-03T11:04:39.089Z,5.20
2022-09-03T11:05:39.068Z,5.50
2022-09-03T11:06:39.060Z,7.20
2022-09-03T11:07:39.089Z,5.60
2022-09-03T11:08:39.019Z,7.70
2022-09-03T11:09:39.025Z,5.80
2022-09-03T11:10:38.995Z,6.10
2022-09-03T11:11:39.310Z,7.10
2022-09-03T11:12:39.105Z,7.60
2022-09-03T11:13:38.969Z,7.30
2022-09-03T11:14:38.933Z,9.20
2022-09-03T11:15:38.951Z,5.60
2022-09-03T11:16:38.914Z,5.30
2022-09-03T11:17:38.907Z,6.50
2022-09-03T11:18:38.938Z,8.00
2022-09-03T11:19:38.894Z,7.50
2022-09-03T11:20:38.864Z,4.60
2022-09-03T11:21:38.847Z,5.20
2022-09-03T11:22:38.838Z,5.70
2022-09-03T11:23:38.821Z,7.40
2022-09-03T11:24:38.803Z,9.30
2022-09-03T11:25:38.795Z,11.30
2022-09-03T11:26:38.776Z,6.00
2022-09-03T11:27:38.772Z,5.20
2022-09-03T11:28:38.771Z,5.10
2022-09-03T11:29:38.741Z,7.00
2022-09-03T11:30:38.764Z,5.40
2022-09-03T11:31:38.713Z,6.80
2022-09-03T11:32:38.681Z,9.70
2022-09-03T11:33:38.702Z,6.20
2022-09-03T11:34:38.683Z,6.50
2022-09-03T11:35:38.677Z,5.10
2022-09-03T11:36:38.671Z,6.40
2022-09-03T11:37:38.751Z,6.00
2022-09-03T11:38:38.622Z,5.80
2022-09-03T11:39:38.669Z,5.00
2022-09-03T11:40:38.627Z,6.30
2022-09-03T11:41:38.580Z,8.30
2022-09-03T11:42:38.565Z,6.20
2022-09-03T11:43:38.560Z,6.00
2022-09-03T11:44:42.711Z,6.90
2022-09-03T11:45:38.607Z,5.10
2022-09-03T11:46:38.628Z,4.90
2022-09-03T11:47:38.520Z,6.70
2022-09-03T11:48:38.487Z,8.00
2022-09-03T11:49:38.526Z,5.70
2022-09-03T11:50:38.490Z,5.00
2022-09-03T11:51:38.450Z,5.10
2022-09-03T11:52:38.427Z,5.80
2022-09-03T11:53:38.427Z,6.00
2022-09-03T11:54:38.439Z,4.60
2022-09-03T11:55:43.425Z,4.30
2022-09-03T11:56:38.432Z,5.10
2022-09-03T11:57:38.365Z,4.00
2022-09-03T11:58:38.363Z,5.20
2022-09-03T11:59:38.345Z,5.10
2022-09-03T12:00:38.340Z,5.20
2022-09-03T12:01:38.350Z,5.20
2022-09-03T12:02:38.397Z,5.30
2022-09-03T12:03:38.289Z,5.00
2022-09-03T12:04:38.357Z,4.20
2022-09-03T12:05:38.297Z,4.10
2022-09-03T12:06:38.274Z,4.70
2022-09-03T12:07:38.274Z,4.00
2022-09-03T12:08:38.301Z,4.90
2022-09-03T12:09:38.212Z,3.60
2022-09-03T12:10:38.217Z,3.60
2022-09-03T12:11:38.209Z,3.30
2022-09-03T12:12:38.219Z,4.90
2022-09-03T12:13:38.154Z,5.10
2022-09-03T12:14:38.152Z,4.20
2022-09-03T12:15:38.205Z,3.40
2022-09-03T12:16:38.148Z,5.20
2022-09-03T12:17:38.121Z,3.90
2022-09-03T12:18:38.156Z,2.50
2022-09-03T12:19:38.084Z,4.30
2022-09-03T12:20:38.126Z,2.90
2022-09-03T12:21:38.053Z,2.50
2022-09-03T12:22:38.062Z,3.80
2022-09-03T12:23:38.092Z,3.50
2022-09-03T12:24:38.522Z,2.40
2022-09-03T12:25:38.171Z,3.10
2022-09-03T12:26:38.027Z,2.00
2022-09-03T12:27:38.301Z,2.40
2022-09-03T12:28:37.978Z,2.40
2022-09-03T12:29:37.943Z,2.30
2022-09-03T12:30:37.971Z,2.30
2022-09-03T12:31:41.272Z,3.30
2022-09-03T12:32:37.970Z,2.40
2022-09-03T12:33:37.892Z,3.30
2022-09-03T12:34:37.934Z,3.60
2022-09-03T12:36:37.894Z,3.80
2022-09-03T12:39:07.576Z,2.90
2022-09-03T12:41:23.617Z,2.30
2022-09-03T12:41:37.995Z,2.90
2022-09-03T12:42:37.792Z,3.80
2022-09-03T12:43:38.913Z,2.90
2022-09-03T12:44:37.828Z,2.10
2022-09-03T12:46:37.762Z,2.90
2022-09-03T12:47:38.325Z,3.40
2022-09-03T12:48:40.304Z,3.00
2022-09-03T12:49:37.688Z,3.90
2022-09-03T12:50:42.464Z,3.10
2022-09-03T12:51:56.358Z,3.60
2022-09-03T12:52:37.695Z,3.80
2022-09-03T12:53:37.618Z,3.10
2022-09-03T12:54:37.625Z,3.10
2022-09-03T12:55:37.642Z,2.40
2022-09-03T12:56:42.510Z,4.20
2022-09-03T12:57:37.626Z,2.70
2022-09-03T12:58:37.601Z,4.30
2022-09-03T12:59:37.545Z,3.20
2022-09-03T13:00:37.536Z,3.60
2022-09-03T13:01:38.406Z,4.80
2022-09-03T13:02:37.546Z,3.90
2022-09-03T13:03:37.501Z,3.00
2022-09-03T13:04:37.916Z,2.90
2022-09-03T13:05:37.549Z,3.70
2022-09-03T13:06:37.482Z,6.40
2022-09-03T13:07:37.457Z,3.40
2022-09-03T13:08:37.452Z,2.60
2022-09-03T13:09:37.428Z,4.00
2022-09-03T13:10:37.411Z,2.80
2022-09-03T13:11:37.400Z,1.70
2022-09-03T13:12:37.437Z,2.10
2022-09-03T13:13:37.367Z,1.00
2022-09-03T13:14:37.364Z,0.80
2022-09-03T13:15:37.409Z,1.00
2022-09-03T13:16:37.404Z,3.10
2022-09-03T13:17:37.342Z,1.30
2022-09-03T13:18:37.308Z,1.10
2022-09-03T13:19:37.280Z,2.10
2022-09-03T13:20:37.294Z,0.40
2022-09-03T13:21:37.261Z,2.20